createdAt,value
2018-04-22T00:00:26.185Z,12.02
2018-04-22T00:01:26.171Z,12.07
2018-04-22T00:02:26.154Z,11.91
2018-04-22T00:03:26.138Z,12.02
2018-04-22T00:04:26.120Z,11.94
2018-04-22T00:05:26.108Z,12.01
2018-04-22T00:06:26.093Z,11.98
2018-04-22T00:07:26.084Z,11.94
2018-04-22T00:08:26.067Z,11.86
2018-04-22T00:09:26.045Z,11.79
2018-04-22T00:10:26.034Z,11.90
2018-04-22T00:11:26.016Z,11.83
2018-04-22T00:12:26.000Z,11.86
2018-04-22T00:13:25.984Z,11.86
2018-04-22T00:14:25.975Z,11.83
2018-04-22T00:15:25.953Z,11.80
2018-04-22T00:16:25.938Z,11.78
2018-04-22T00:17:25.921Z,11.86
2018-04-22T00:18:25.907Z,11.83
2018-04-22T00:19:25.891Z,11.82
2018-04-22T00:20:25.875Z,11.79
2018-04-22T00:21:25.865Z,11.80
2018-04-22T00:22:25.845Z,11.78
2018-04-22T00:23:25.833Z,11.72
2018-04-22T00:24:25.815Z,11.67
2018-04-22T00:25:25.796Z,11.65
2018-04-22T00:26:25.784Z,11.73
2018-04-22T00:27:25.767Z,11.78
2018-04-22T00:28:25.751Z,11.67
2018-04-22T00:29:25.736Z,11.62
2018-04-22T00:30:25.719Z,11.69
2018-04-22T00:31:25.705Z,11.62
2018-04-22T00:32:25.691Z,11.65
2018-04-22T00:33:25.675Z,11.52
2018-04-22T00:34:25.662Z,11.51
2018-04-22T00:35:25.644Z,11.44
2018-04-22T00:36:25.625Z,11.49
2018-04-22T00:37:25.610Z,11.51
2018-04-22T00:38:25.597Z,11.55
2018-04-22T00:39:25.580Z,11.46
2018-04-22T00:40:25.563Z,11.43
2018-04-22T00:41:25.548Z,11.47
2018-04-22T00:42:25.537Z,11.27
2018-04-22T00:43:25.517Z,11.33
2018-04-22T00:44:25.512Z,11.35
2018-04-22T00:45:25.485Z,11.33
2018-04-22T00:46:25.520Z,11.44
2018-04-22T00:47:25.453Z,11.33
2018-04-22T00:48:25.435Z,11.37
2018-04-22T00:49:25.494Z,11.36
2018-04-22T00:50:25.406Z,11.32
2018-04-22T00:51:25.389Z,11.37
2018-04-22T00:52:25.372Z,11.33
2018-04-22T00:53:25.364Z,11.25
2018-04-22T00:54:25.373Z,11.32
2018-04-22T00:55:25.326Z,11.27
2018-04-22T00:56:25.309Z,11.28
2018-04-22T00:57:25.303Z,11.21
2018-04-22T00:58:25.281Z,11.22
2018-04-22T00:59:25.264Z,11.24
2018-04-22T01:00:25.249Z,11.24
2018-04-22T01:01:25.231Z,11.28
2018-04-22T01:02:25.214Z,11.21
2018-04-22T01:03:25.201Z,11.09
2018-04-22T01:04:25.182Z,11.15
2018-04-22T01:05:25.165Z,11.07
2018-04-22T01:06:25.155Z,11.10
2018-04-22T01:07:25.135Z,11.25
2018-04-22T01:08:25.118Z,11.24
2018-04-22T01:09:25.103Z,11.22
2018-04-22T01:10:25.085Z,11.22
2018-04-22T01:11:25.072Z,11.22
2018-04-22T01:12:25.055Z,11.14
2018-04-22T01:13:25.049Z,11.11
2018-04-22T01:14:25.022Z,11.11
2018-04-22T01:15:25.011Z,11.09
2018-04-22T01:16:25.044Z,11.15
2018-04-22T01:17:24.974Z,11.09
2018-04-22T01:18:24.959Z,11.10
2018-04-22T01:19:24.943Z,11.07
2018-04-22T01:20:24.923Z,11.17
2018-04-22T01:21:24.909Z,11.04
2018-04-22T01:22:24.894Z,11.03
2018-04-22T01:23:24.881Z,10.86
2018-04-22T01:24:24.863Z,11.00
2018-04-22T01:25:24.848Z,10.91
2018-04-22T01:26:24.829Z,10.82
2018-04-22T01:27:24.816Z,10.94
2018-04-22T01:28:24.803Z,10.79
2018-04-22T01:29:24.782Z,10.82
2018-04-22T01:30:24.766Z,10.79
2018-04-22T01:31:24.752Z,10.82
2018-04-22T01:32:24.734Z,10.79
2018-04-22T01:33:24.720Z,10.85
2018-04-22T01:34:24.703Z,10.74
2018-04-22T01:35:24.690Z,10.74
2018-04-22T01:36:24.670Z,10.73
2018-04-22T01:37:24.657Z,10.73
2018-04-22T01:38:24.638Z,10.81
2018-04-22T01:39:24.622Z,10.74
2018-04-22T01:40:24.605Z,10.78
2018-04-22T01:41:24.588Z,10.79
2018-04-22T01:42:24.573Z,10.74
2018-04-22T01:43:24.557Z,10.73
2018-04-22T01:44:24.540Z,10.61
2018-04-22T01:45:24.524Z,10.67
2018-04-22T01:46:24.507Z,10.68
2018-04-22T01:47:24.490Z,10.63
2018-04-22T01:48:24.473Z,10.64
2018-04-22T01:49:24.458Z,10.56
2018-04-22T01:50:24.443Z,10.60
2018-04-22T01:51:24.425Z,10.47
2018-04-22T01:52:24.407Z,10.53
2018-04-22T01:53:24.395Z,10.52
2018-04-22T01:54:24.375Z,10.48
2018-04-22T01:55:24.359Z,10.47
2018-04-22T01:56:24.341Z,10.51
2018-04-22T01:57:24.330Z,10.48
2018-04-22T01:58:24.310Z,10.36
2018-04-22T01:59:24.294Z,10.32
2018-04-22T02:00:24.274Z,10.33
2018-04-22T02:01:24.258Z,10.40
2018-04-22T02:02:24.242Z,10.30
2018-04-22T02:03:24.229Z,10.27
2018-04-22T02:04:24.207Z,10.26
2018-04-22T02:05:24.190Z,10.26
2018-04-22T02:06:24.181Z,10.27
2018-04-22T02:07:24.158Z,10.32
2018-04-22T02:08:24.142Z,10.30
2018-04-22T02:09:24.125Z,10.23
2018-04-22T02:10:24.106Z,10.26
2018-04-22T02:11:24.091Z,10.25
2018-04-22T02:12:24.073Z,10.25
2018-04-22T02:13:24.062Z,10.23
2018-04-22T02:14:24.045Z,10.25
2018-04-22T02:15:24.025Z,10.15
2018-04-22T02:16:24.007Z,10.27
2018-04-22T02:17:23.989Z,10.25
2018-04-22T02:18:23.973Z,10.22
2018-04-22T02:19:23.957Z,10.25
2018-04-22T02:20:23.938Z,10.15
2018-04-22T02:21:23.925Z,10.30
2018-04-22T02:22:23.906Z,10.23
2018-04-22T02:23:23.897Z,10.26
2018-04-22T02:24:23.872Z,10.22
2018-04-22T02:25:23.857Z,10.20
2018-04-22T02:26:23.848Z,10.20
2018-04-22T02:27:23.823Z,10.25
2018-04-22T02:28:23.804Z,10.23
2018-04-22T02:29:23.788Z,10.20
2018-04-22T02:30:23.776Z,10.26
2018-04-22T02:31:23.755Z,10.23
2018-04-22T02:32:23.741Z,10.15
2018-04-22T02:33:23.720Z,10.18
2018-04-22T02:34:23.704Z,10.20
2018-04-22T02:35:23.700Z,10.17
2018-04-22T02:36:23.679Z,10.20
2018-04-22T02:37:23.654Z,10.18
2018-04-22T02:38:23.645Z,10.23
2018-04-22T02:39:23.630Z,10.29
2018-04-22T02:40:23.602Z,10.25
2018-04-22T02:41:23.590Z,10.32
2018-04-22T02:42:23.567Z,10.27
2018-04-22T02:43:23.552Z,10.26
2018-04-22T02:44:23.534Z,10.18
2018-04-22T02:45:23.520Z,10.26
2018-04-22T02:46:23.500Z,10.29
2018-04-22T02:47:23.484Z,10.22
2018-04-22T02:48:23.466Z,10.22
2018-04-22T02:49:23.449Z,10.32
2018-04-22T02:50:23.431Z,10.18
2018-04-22T02:51:23.419Z,10.20
2018-04-22T02:52:23.402Z,10.22
2018-04-22T02:53:23.387Z,10.25
2018-04-22T02:54:23.365Z,10.15
2018-04-22T02:55:23.352Z,10.15
2018-04-22T02:56:23.331Z,10.14
2018-04-22T02:57:23.314Z,10.11
2018-04-22T02:58:23.302Z,10.12
2018-04-22T02:59:23.282Z,10.12
2018-04-22T03:00:23.265Z,10.14
2018-04-22T03:01:23.247Z,10.14
2018-04-22T03:02:23.235Z,10.07
2018-04-22T03:03:23.214Z,10.02
2018-04-22T03:04:23.195Z,10.01
2018-04-22T03:05:23.176Z,10.01
2018-04-22T03:06:23.163Z,9.97
2018-04-22T03:07:23.152Z,9.99
2018-04-22T03:08:23.127Z,10.04
2018-04-22T03:09:23.117Z,9.96
2018-04-22T03:10:23.094Z,9.96
2018-04-22T03:11:23.077Z,9.89
2018-04-22T03:12:23.059Z,9.99
2018-04-22T03:13:23.043Z,9.93
2018-04-22T03:14:23.025Z,10.01
2018-04-22T03:15:23.008Z,10.04
2018-04-22T03:16:22.992Z,10.04
2018-04-22T03:17:22.974Z,10.01
2018-04-22T03:18:22.957Z,9.96
2018-04-22T03:19:22.945Z,9.90
2018-04-22T03:20:22.923Z,9.81
2018-04-22T03:21:22.907Z,9.79
2018-04-22T03:22:22.889Z,9.90
2018-04-22T03:23:22.872Z,9.91
2018-04-22T03:24:22.856Z,9.94
2018-04-22T03:25:22.838Z,9.84
2018-04-22T03:26:22.822Z,9.89
2018-04-22T03:27:22.803Z,9.87
2018-04-22T03:28:22.784Z,9.90
2018-04-22T03:29:22.783Z,9.89
2018-04-22T03:30:22.752Z,9.93
2018-04-22T03:31:22.735Z,9.84
2018-04-22T03:32:22.717Z,9.86
2018-04-22T03:33:22.702Z,9.83
2018-04-22T03:34:22.684Z,9.79
2018-04-22T03:35:22.671Z,9.83
2018-04-22T03:36:22.646Z,9.75
2018-04-22T03:37:22.632Z,9.66
2018-04-22T03:38:22.613Z,9.69
2018-04-22T03:39:22.599Z,9.69
2018-04-22T03:40:22.581Z,9.58
2018-04-22T03:41:22.564Z,9.66
2018-04-22T03:42:22.547Z,9.58
2018-04-22T03:43:22.533Z,9.60
2018-04-22T03:44:22.512Z,9.53
2018-04-22T03:45:22.496Z,9.51
2018-04-22T03:46:22.478Z,9.53
2018-04-22T03:47:22.461Z,9.39
2018-04-22T03:48:22.445Z,9.43
2018-04-22T03:49:22.430Z,9.51
2018-04-22T03:50:22.410Z,9.61
2018-04-22T03:51:22.392Z,9.54
2018-04-22T03:52:22.375Z,9.56
2018-04-22T03:53:22.357Z,9.54
2018-04-22T03:54:22.346Z,9.54
2018-04-22T03:55:22.323Z,9.51
2018-04-22T03:56:22.305Z,9.53
2018-04-22T03:57:22.288Z,9.39
2018-04-22T03:58:22.270Z,9.42
2018-04-22T03:59:22.254Z,9.48
2018-04-22T04:00:22.238Z,9.46
2018-04-22T04:01:22.224Z,9.50
2018-04-22T04:02:22.203Z,9.56
2018-04-22T04:03:22.188Z,9.56
2018-04-22T04:04:22.171Z,9.51
2018-04-22T04:05:22.149Z,9.57
2018-04-22T04:06:22.134Z,9.50
2018-04-22T04:07:22.120Z,9.58
2018-04-22T04:08:22.106Z,9.50
2018-04-22T04:09:22.080Z,9.50
2018-04-22T04:10:22.063Z,9.47
2018-04-22T04:11:22.046Z,9.33
2018-04-22T04:12:22.030Z,9.40
2018-04-22T04:13:22.010Z,9.36
2018-04-22T04:14:21.994Z,9.38
2018-04-22T04:15:21.977Z,9.32
2018-04-22T04:16:21.959Z,9.35
2018-04-22T04:17:21.941Z,9.40
2018-04-22T04:18:21.926Z,9.39
2018-04-22T04:19:21.920Z,9.33
2018-04-22T04:20:21.889Z,9.40
2018-04-22T04:21:21.872Z,9.42
2018-04-22T04:22:21.856Z,9.43
2018-04-22T04:23:21.838Z,9.46
2018-04-22T04:24:21.820Z,9.47
2018-04-22T04:25:21.803Z,9.50
2018-04-22T04:26:21.785Z,9.54
2018-04-22T04:27:21.768Z,9.56
2018-04-22T04:28:21.750Z,9.47
2018-04-22T04:29:21.733Z,9.39
2018-04-22T04:30:21.716Z,9.42
2018-04-22T04:31:21.697Z,9.54
2018-04-22T04:32:21.679Z,9.53
2018-04-22T04:33:21.663Z,9.53
2018-04-22T04:34:21.645Z,9.57
2018-04-22T04:35:21.635Z,9.54
2018-04-22T04:36:21.608Z,9.64
2018-04-22T04:37:21.591Z,9.65
2018-04-22T04:38:21.577Z,9.64
2018-04-22T04:39:21.559Z,9.74
2018-04-22T04:40:21.539Z,9.64
2018-04-22T04:41:21.527Z,9.65
2018-04-22T04:42:21.507Z,9.71
2018-04-22T04:43:21.487Z,9.75
2018-04-22T04:44:21.468Z,9.79
2018-04-22T04:45:21.502Z,9.78
2018-04-22T04:46:21.435Z,9.79
2018-04-22T04:47:21.419Z,9.78
2018-04-22T04:48:21.402Z,9.90
2018-04-22T04:49:21.386Z,9.83
2018-04-22T04:50:21.377Z,9.90
2018-04-22T04:51:21.349Z,9.86
2018-04-22T04:52:21.330Z,9.89
2018-04-22T04:53:21.318Z,9.96
2018-04-22T04:54:21.352Z,10.05
2018-04-22T04:55:21.284Z,10.02
2018-04-22T04:56:21.260Z,10.02
2018-04-22T04:57:21.244Z,10.02
2018-04-22T04:58:21.230Z,10.05
2018-04-22T04:59:21.212Z,10.11
2018-04-22T05:00:21.230Z,10.05
2018-04-22T05:01:21.177Z,10.09
2018-04-22T05:02:21.159Z,10.12
2018-04-22T05:03:21.143Z,10.12
2018-04-22T05:04:21.124Z,10.15
2018-04-22T05:05:21.106Z,10.15
2018-04-22T05:06:21.092Z,10.23
2018-04-22T05:07:21.074Z,10.22
2018-04-22T05:08:21.055Z,10.22
2018-04-22T05:09:21.038Z,10.25
2018-04-22T05:10:21.024Z,10.18
2018-04-22T05:11:21.006Z,10.23
2018-04-22T05:12:20.989Z,10.25
2018-04-22T05:13:20.969Z,10.32
2018-04-22T05:14:20.954Z,10.40
2018-04-22T05:15:20.936Z,10.38
2018-04-22T05:16:20.918Z,10.38
2018-04-22T05:17:20.905Z,10.34
2018-04-22T05:18:20.893Z,10.45
2018-04-22T05:19:20.872Z,10.44
2018-04-22T05:20:20.849Z,10.61
2018-04-22T05:21:20.833Z,10.53
2018-04-22T05:22:20.820Z,10.56
2018-04-22T05:23:20.804Z,10.68
2018-04-22T05:24:20.788Z,10.64
2018-04-22T05:25:20.764Z,10.71
2018-04-22T05:26:20.752Z,10.70
2018-04-22T05:27:20.731Z,10.70
2018-04-22T05:28:20.718Z,10.81
2018-04-22T05:29:20.699Z,10.79
2018-04-22T05:30:20.683Z,10.82
2018-04-22T05:31:20.665Z,10.82
2018-04-22T05:32:20.648Z,10.89
2018-04-22T05:33:20.632Z,10.92
2018-04-22T05:34:20.614Z,10.97
2018-04-22T05:35:20.598Z,10.92
2018-04-22T05:36:20.579Z,10.97
2018-04-22T05:37:20.563Z,11.00
2018-04-22T05:38:20.549Z,11.03
2018-04-22T05:39:20.528Z,11.02
2018-04-22T05:40:20.514Z,11.00
2018-04-22T05:41:20.500Z,11.11
2018-04-22T05:42:20.479Z,11.17
2018-04-22T05:43:20.466Z,11.11
2018-04-22T05:44:20.445Z,11.29
2018-04-22T05:45:20.430Z,11.19
2018-04-22T05:46:20.412Z,11.25
2018-04-22T05:47:20.398Z,11.24
2018-04-22T05:48:20.378Z,11.27
2018-04-22T05:49:20.362Z,11.35
2018-04-22T05:50:20.349Z,11.33
2018-04-22T05:51:20.333Z,11.40
2018-04-22T05:52:20.312Z,11.33
2018-04-22T05:53:20.299Z,11.49
2018-04-22T05:54:20.279Z,11.61
2018-04-22T05:55:20.265Z,11.65
2018-04-22T05:56:20.248Z,11.67
2018-04-22T05:57:20.232Z,11.64
2018-04-22T05:58:20.216Z,11.76
2018-04-22T05:59:20.204Z,11.78
2018-04-22T06:00:20.181Z,11.86
2018-04-22T06:01:20.168Z,11.94
2018-04-22T06:02:20.152Z,11.91
2018-04-22T06:03:20.132Z,12.04
2018-04-22T06:04:20.118Z,12.12
2018-04-22T06:05:20.103Z,12.20
2018-04-22T06:06:20.087Z,12.23
2018-04-22T06:07:20.071Z,12.19
2018-04-22T06:08:20.052Z,12.28
2018-04-22T06:09:20.038Z,12.45
2018-04-22T06:10:20.020Z,12.42
2018-04-22T06:11:20.010Z,12.49
2018-04-22T06:12:19.988Z,12.67
2018-04-22T06:13:19.979Z,12.62
2018-04-22T06:14:19.957Z,12.68
2018-04-22T06:15:19.941Z,12.71
2018-04-22T06:16:19.926Z,12.75
2018-04-22T06:17:19.911Z,12.85
2018-04-22T06:18:19.893Z,12.77
2018-04-22T06:19:19.877Z,12.93
2018-04-22T06:20:19.861Z,12.87
2018-04-22T06:21:19.845Z,13.03
2018-04-22T06:22:19.829Z,13.11
2018-04-22T06:23:19.815Z,13.25
2018-04-22T06:24:19.795Z,13.26
2018-04-22T06:25:19.786Z,13.33
2018-04-22T06:26:19.765Z,13.32
2018-04-22T06:27:19.750Z,13.41
2018-04-22T06:28:19.796Z,13.51
2018-04-22T06:29:19.721Z,13.54
2018-04-22T06:30:19.711Z,13.64
2018-04-22T06:31:19.690Z,13.71
2018-04-22T06:32:19.676Z,13.78
2018-04-22T06:33:19.661Z,13.84
2018-04-22T06:34:19.656Z,13.88
2018-04-22T06:35:19.625Z,13.97
2018-04-22T06:36:19.614Z,13.96
2018-04-22T06:37:19.596Z,14.04
2018-04-22T06:38:19.583Z,14.14
2018-04-22T06:39:19.578Z,14.14
2018-04-22T06:40:19.553Z,14.32
2018-04-22T06:41:19.534Z,14.46
2018-04-22T06:42:19.536Z,14.43
2018-04-22T06:43:19.505Z,14.46
2018-04-22T06:44:19.490Z,14.58
2018-04-22T06:45:19.480Z,14.69
2018-04-22T06:46:19.459Z,14.75
2018-04-22T06:47:19.446Z,14.98
2018-04-22T06:48:19.430Z,15.03
2018-04-22T06:49:19.417Z,15.19
2018-04-22T06:50:19.401Z,15.41
2018-04-22T06:51:19.445Z,15.56
2018-04-22T06:52:19.383Z,15.89
2018-04-22T06:53:19.361Z,16.23
2018-04-22T06:54:19.391Z,16.67
2018-04-22T06:55:19.327Z,17.07
2018-04-22T06:56:19.312Z,17.37
2018-04-22T06:57:19.298Z,17.66
2018-04-22T06:58:19.293Z,17.79
2018-04-22T06:59:19.269Z,18.00
2018-04-22T07:00:19.255Z,18.23
2018-04-22T07:01:19.242Z,18.44
2018-04-22T07:02:19.227Z,18.60
2018-04-22T07:03:19.214Z,18.85
2018-04-22T07:04:19.200Z,19.07
2018-04-22T07:05:19.187Z,19.26
2018-04-22T07:06:19.176Z,19.40
2018-04-22T07:07:19.161Z,19.54
2018-04-22T07:08:19.153Z,19.77
2018-04-22T07:09:19.137Z,19.99
2018-04-22T07:10:19.126Z,20.20
2018-04-22T07:11:19.115Z,20.38
2018-04-22T07:12:19.102Z,20.69
2018-04-22T07:13:19.096Z,20.84
2018-04-22T07:14:19.087Z,20.70
2018-04-22T07:15:19.071Z,20.79
2018-04-22T07:16:19.064Z,20.87
2018-04-22T07:17:19.055Z,21.07
2018-04-22T07:18:19.045Z,21.14
2018-04-22T07:19:19.036Z,21.56
2018-04-22T07:20:19.027Z,21.69
2018-04-22T07:21:19.022Z,21.79
2018-04-22T07:22:19.011Z,22.09
2018-04-22T07:23:19.005Z,22.06
2018-04-22T07:24:19.000Z,21.98
2018-04-22T07:25:18.990Z,22.14
2018-04-22T07:26:18.984Z,21.84
2018-04-22T07:27:18.979Z,21.58
2018-04-22T07:28:18.973Z,21.58
2018-04-22T07:29:18.985Z,21.44
2018-04-22T07:30:18.963Z,21.61
2018-04-22T07:31:18.956Z,21.74
2018-04-22T07:32:18.957Z,21.67
2018-04-22T07:33:18.948Z,21.91
2018-04-22T07:34:18.941Z,22.03
2018-04-22T07:35:18.942Z,22.46
2018-04-22T07:36:18.934Z,22.75
2018-04-22T07:37:18.929Z,23.10
2018-04-22T07:38:18.926Z,23.40
2018-04-22T07:39:18.920Z,23.51
2018-04-22T07:40:18.916Z,23.63
2018-04-22T07:41:18.917Z,23.79
2018-04-22T07:42:18.937Z,23.72
2018-04-22T07:43:18.904Z,23.87
2018-04-22T07:44:18.899Z,23.85
2018-04-22T07:45:18.896Z,23.87
2018-04-22T07:46:18.898Z,24.08
2018-04-22T07:47:18.891Z,24.32
2018-04-22T07:48:18.887Z,24.46
2018-04-22T07:49:18.897Z,24.91
2018-04-22T07:50:18.882Z,24.95
2018-04-22T07:51:18.886Z,25.05
2018-04-22T07:52:18.877Z,25.21
2018-04-22T07:53:18.877Z,25.28
2018-04-22T07:54:18.872Z,25.20
2018-04-22T07:55:18.872Z,25.18
2018-04-22T07:56:18.876Z,25.42
2018-04-22T07:57:18.867Z,25.54
2018-04-22T07:58:18.872Z,25.27
2018-04-22T07:59:18.868Z,25.02
2018-04-22T08:00:18.868Z,24.64
2018-04-22T08:01:18.871Z,24.49
2018-04-22T08:02:18.867Z,24.43
2018-04-22T08:03:18.865Z,24.28
2018-04-22T08:04:18.873Z,23.75
2018-04-22T08:05:18.863Z,23.50
2018-04-22T08:06:18.863Z,23.23
2018-04-22T08:07:18.873Z,22.86
2018-04-22T08:08:18.860Z,22.64
2018-04-22T08:09:18.861Z,22.60
2018-04-22T08:10:18.874Z,22.25
2018-04-22T08:11:18.860Z,21.92
2018-04-22T08:12:18.872Z,21.86
2018-04-22T08:13:18.861Z,21.80
2018-04-22T08:14:18.860Z,21.69
2018-04-22T08:15:18.860Z,21.53
2018-04-22T08:16:18.913Z,21.46
2018-04-22T08:17:18.856Z,21.40
2018-04-22T08:18:18.860Z,21.29
2018-04-22T08:19:18.855Z,21.37
2018-04-22T08:20:18.853Z,21.37
2018-04-22T08:21:18.852Z,21.22
2018-04-22T08:22:18.854Z,21.28
2018-04-22T08:23:18.849Z,21.10
2018-04-22T08:24:18.858Z,21.07
2018-04-22T08:25:18.848Z,21.06
2018-04-22T08:26:18.843Z,21.13
2018-04-22T08:27:18.842Z,21.07
2018-04-22T08:28:18.874Z,21.06
2018-04-22T08:29:18.836Z,20.99
2018-04-22T08:30:18.833Z,21.14
2018-04-22T08:31:18.830Z,20.97
2018-04-22T08:32:18.828Z,21.09
2018-04-22T08:33:18.838Z,21.01
2018-04-22T08:34:18.821Z,20.97
2018-04-22T08:35:18.817Z,20.92
2018-04-22T08:36:18.815Z,20.91
2018-04-22T08:37:18.808Z,20.92
2018-04-22T08:38:18.817Z,20.94
2018-04-22T08:39:18.803Z,20.97
2018-04-22T08:40:18.799Z,20.97
2018-04-22T08:41:18.792Z,20.97
2018-04-22T08:42:18.793Z,20.89
2018-04-22T08:43:18.784Z,20.94
2018-04-22T08:44:18.777Z,21.04
2018-04-22T08:45:18.771Z,21.06
2018-04-22T08:46:18.767Z,21.21
2018-04-22T08:47:18.765Z,21.25
2018-04-22T08:48:18.758Z,21.27
2018-04-22T08:49:18.759Z,21.35
2018-04-22T08:50:18.753Z,21.42
2018-04-22T08:51:18.742Z,21.40
2018-04-22T08:52:18.740Z,21.34
2018-04-22T08:53:18.734Z,21.47
2018-04-22T08:54:18.725Z,21.47
2018-04-22T08:55:18.728Z,21.42
2018-04-22T08:56:18.714Z,21.61
2018-04-22T08:57:18.708Z,21.58
2018-04-22T08:58:18.702Z,21.71
2018-04-22T08:59:18.696Z,21.83
2018-04-22T09:00:18.690Z,21.79
2018-04-22T09:01:18.688Z,21.74
2018-04-22T09:02:18.681Z,21.69
2018-04-22T09:03:18.672Z,21.67
2018-04-22T09:04:18.664Z,21.69
2018-04-22T09:05:18.659Z,21.68
2018-04-22T09:06:18.652Z,21.72
2018-04-22T09:07:18.645Z,21.69
2018-04-22T09:08:18.641Z,21.69
2018-04-22T09:09:18.633Z,21.69
2018-04-22T09:10:18.627Z,21.68
2018-04-22T09:11:18.624Z,21.65
2018-04-22T09:12:18.614Z,21.61
2018-04-22T09:13:18.608Z,21.71
2018-04-22T09:14:18.602Z,21.75
2018-04-22T09:15:18.600Z,21.83
2018-04-22T09:16:18.586Z,21.84
2018-04-22T09:17:18.582Z,21.65
2018-04-22T09:18:18.574Z,21.64
2018-04-22T09:19:18.568Z,21.67
2018-04-22T09:20:18.559Z,21.80
2018-04-22T09:21:18.555Z,21.88
2018-04-22T09:22:18.548Z,21.94
2018-04-22T09:23:18.541Z,22.05
2018-04-22T09:24:18.536Z,22.09
2018-04-22T09:25:18.530Z,22.05
2018-04-22T09:26:18.520Z,22.03
2018-04-22T09:27:18.511Z,22.07
2018-04-22T09:28:18.503Z,22.18
2018-04-22T09:29:18.499Z,22.21
2018-04-22T09:30:18.491Z,22.24
2018-04-22T09:31:18.483Z,22.17
2018-04-22T09:32:18.476Z,22.17
2018-04-22T09:33:18.469Z,22.14
2018-04-22T09:34:18.465Z,22.12
2018-04-22T09:35:18.454Z,22.09
2018-04-22T09:36:18.447Z,22.18
2018-04-22T09:37:18.442Z,22.25
2018-04-22T09:38:18.444Z,22.25
2018-04-22T09:39:18.432Z,22.25
2018-04-22T09:40:18.420Z,22.43
2018-04-22T09:41:18.411Z,22.45
2018-04-22T09:42:18.408Z,22.46
2018-04-22T09:43:18.404Z,22.64
2018-04-22T09:44:18.391Z,22.61
2018-04-22T09:45:18.388Z,22.62
2018-04-22T09:46:18.378Z,22.65
2018-04-22T09:47:18.372Z,22.72
2018-04-22T09:48:18.363Z,22.82
2018-04-22T09:49:18.354Z,22.77
2018-04-22T09:50:18.353Z,22.83
2018-04-22T09:51:18.343Z,22.83
2018-04-22T09:52:18.385Z,22.82
2018-04-22T09:53:18.349Z,22.79
2018-04-22T09:54:18.321Z,22.62
2018-04-22T09:55:18.370Z,22.61
2018-04-22T09:56:18.308Z,22.60
2018-04-22T09:57:18.301Z,22.65
2018-04-22T09:58:18.292Z,22.62
2018-04-22T09:59:18.292Z,22.64
2018-04-22T10:00:18.283Z,22.65
2018-04-22T10:01:18.278Z,22.72
2018-04-22T10:02:18.264Z,22.77
2018-04-22T10:03:18.257Z,22.70
2018-04-22T10:04:18.251Z,22.75
2018-04-22T10:05:18.241Z,22.73
2018-04-22T10:06:18.250Z,22.76
2018-04-22T10:07:18.232Z,22.82
2018-04-22T10:08:18.219Z,22.88
2018-04-22T10:09:18.216Z,22.94
2018-04-22T10:10:18.206Z,23.04
2018-04-22T10:11:18.198Z,23.10
2018-04-22T10:12:18.196Z,23.20
2018-04-22T10:13:18.184Z,23.31
2018-04-22T10:14:18.180Z,23.36
2018-04-22T10:15:18.172Z,23.32
2018-04-22T10:16:18.165Z,23.40
2018-04-22T10:17:18.157Z,23.36
2018-04-22T10:18:18.152Z,23.50
2018-04-22T10:19:18.152Z,23.50
2018-04-22T10:20:18.141Z,23.51
2018-04-22T10:21:18.130Z,23.55
2018-04-22T10:22:18.121Z,23.50
2018-04-22T10:23:18.117Z,23.61
2018-04-22T10:24:18.115Z,23.55
2018-04-22T10:25:18.107Z,23.55
2018-04-22T10:26:18.099Z,23.61
2018-04-22T10:27:18.091Z,23.73
2018-04-22T10:28:18.080Z,23.78
2018-04-22T10:29:18.072Z,23.87
2018-04-22T10:30:18.067Z,23.97
2018-04-22T10:31:18.065Z,24.03
2018-04-22T10:32:18.053Z,23.98
2018-04-22T10:33:18.047Z,24.02
2018-04-22T10:34:18.038Z,24.00
2018-04-22T10:35:18.032Z,24.08
2018-04-22T10:36:18.024Z,23.91
2018-04-22T10:37:18.077Z,23.70
2018-04-22T10:38:18.011Z,23.54
2018-04-22T10:39:18.004Z,23.47
2018-04-22T10:40:17.996Z,23.43
2018-04-22T10:41:17.988Z,23.47
2018-04-22T10:42:17.992Z,23.40
2018-04-22T10:43:17.983Z,23.53
2018-04-22T10:44:17.969Z,23.58
2018-04-22T10:45:17.962Z,23.78
2018-04-22T10:46:17.959Z,23.83
2018-04-22T10:47:17.958Z,23.91
2018-04-22T10:48:17.946Z,24.09
2018-04-22T10:49:17.936Z,24.15
2018-04-22T10:50:17.934Z,24.12
2018-04-22T10:51:17.922Z,24.12
2018-04-22T10:52:17.913Z,24.13
2018-04-22T10:53:17.908Z,24.21
2018-04-22T10:54:17.907Z,24.21
2018-04-22T10:55:17.973Z,24.15
2018-04-22T10:56:17.889Z,24.15
2018-04-22T10:57:17.881Z,24.12
2018-04-22T10:58:17.875Z,24.06
2018-04-22T10:59:17.869Z,24.10
2018-04-22T11:00:17.863Z,24.18
2018-04-22T11:01:17.854Z,24.25
2018-04-22T11:02:17.858Z,24.39
2018-04-22T11:03:17.851Z,24.50
2018-04-22T11:04:17.835Z,24.58
2018-04-22T11:05:17.838Z,24.65
2018-04-22T11:06:17.824Z,24.81
2018-04-22T11:07:17.921Z,24.85
2018-04-22T11:08:17.811Z,24.84
2018-04-22T11:09:17.804Z,24.90
2018-04-22T11:10:17.802Z,24.87
2018-04-22T11:11:17.793Z,24.84
2018-04-22T11:12:17.784Z,24.81
2018-04-22T11:13:17.777Z,24.76
2018-04-22T11:14:17.803Z,24.80
2018-04-22T11:15:17.766Z,24.78
2018-04-22T11:16:17.758Z,24.84
2018-04-22T11:17:17.755Z,24.91
2018-04-22T11:18:17.745Z,24.96
2018-04-22T11:19:17.741Z,24.98
2018-04-22T11:20:17.735Z,25.03
2018-04-22T11:21:17.729Z,24.96
2018-04-22T11:22:17.726Z,24.99
2018-04-22T11:23:17.717Z,24.88
2018-04-22T11:24:17.708Z,25.00
2018-04-22T11:25:17.703Z,24.85
2018-04-22T11:26:17.701Z,24.93
2018-04-22T11:27:17.695Z,24.85
2018-04-22T11:28:17.684Z,24.95
2018-04-22T11:29:17.688Z,25.08
2018-04-22T11:30:17.673Z,25.17
2018-04-22T11:31:17.665Z,25.20
2018-04-22T11:32:17.663Z,25.17
2018-04-22T11:33:17.656Z,25.23
2018-04-22T11:34:17.651Z,25.32
2018-04-22T11:35:17.643Z,25.30
2018-04-22T11:36:17.636Z,25.32
2018-04-22T11:37:17.633Z,25.40
2018-04-22T11:38:17.627Z,25.47
2018-04-22T11:39:17.624Z,25.45
2018-04-22T11:40:17.615Z,25.46
2018-04-22T11:41:17.608Z,25.35
2018-04-22T11:42:17.605Z,25.46
2018-04-22T11:43:17.602Z,25.39
2018-04-22T11:44:17.592Z,25.39
2018-04-22T11:45:17.585Z,25.27
2018-04-22T11:46:17.580Z,25.20
2018-04-22T11:47:17.577Z,25.23
2018-04-22T11:48:17.568Z,25.27
2018-04-22T11:49:17.565Z,25.23
2018-04-22T11:50:17.562Z,25.24
2018-04-22T11:51:17.552Z,25.35
2018-04-22T11:52:17.599Z,25.46
2018-04-22T11:53:17.546Z,25.57
2018-04-22T11:54:17.538Z,25.69
2018-04-22T11:55:17.534Z,25.61
2018-04-22T11:56:17.525Z,25.70
2018-04-22T11:57:17.523Z,25.76
2018-04-22T11:58:17.518Z,25.76
2018-04-22T11:59:17.510Z,25.82
2018-04-22T12:00:17.510Z,25.92
2018-04-22T12:01:17.502Z,26.01
2018-04-22T12:02:17.497Z,26.20
2018-04-22T12:03:17.495Z,26.21
2018-04-22T12:04:17.490Z,26.28
2018-04-22T12:05:17.480Z,26.36
2018-04-22T12:06:17.472Z,26.48
2018-04-22T12:07:17.469Z,26.54
2018-04-22T12:08:17.463Z,26.57
2018-04-22T12:09:17.464Z,26.63
2018-04-22T12:10:17.455Z,26.60
2018-04-22T12:11:17.448Z,26.63
2018-04-22T12:12:17.454Z,26.57
2018-04-22T12:13:17.447Z,26.57
2018-04-22T12:14:17.434Z,26.62
2018-04-22T12:15:17.430Z,26.57
2018-04-22T12:16:17.428Z,26.72
2018-04-22T12:17:17.427Z,26.75
2018-04-22T12:18:17.415Z,26.76
2018-04-22T12:19:17.412Z,26.80
2018-04-22T12:20:17.407Z,26.75
2018-04-22T12:21:17.408Z,26.77
2018-04-22T12:22:17.398Z,26.73
2018-04-22T12:23:17.397Z,26.70
2018-04-22T12:24:17.393Z,26.84
2018-04-22T12:25:17.383Z,26.89
2018-04-22T12:26:17.380Z,26.85
2018-04-22T12:27:17.378Z,26.89
2018-04-22T12:28:17.369Z,26.94
2018-04-22T12:29:17.365Z,26.99
2018-04-22T12:30:17.361Z,26.95
2018-04-22T12:31:17.357Z,27.10
2018-04-22T12:32:17.354Z,27.14
2018-04-22T12:33:17.349Z,27.17
2018-04-22T12:34:17.349Z,27.19
2018-04-22T12:35:17.353Z,27.40
2018-04-22T12:36:17.342Z,27.40
2018-04-22T12:37:17.331Z,27.51
2018-04-22T12:38:17.327Z,27.57
2018-04-22T12:39:17.329Z,27.59
2018-04-22T12:40:17.318Z,27.67
2018-04-22T12:41:17.315Z,27.60
2018-04-22T12:42:17.310Z,27.40
2018-04-22T12:43:17.307Z,27.41
2018-04-22T12:44:17.302Z,27.43
2018-04-22T12:45:17.296Z,27.54
2018-04-22T12:46:17.294Z,27.50
2018-04-22T12:47:17.295Z,27.59
2018-04-22T12:48:17.286Z,27.66
2018-04-22T12:49:17.280Z,27.65
2018-04-22T12:50:17.281Z,27.66
2018-04-22T12:51:17.289Z,27.54
2018-04-22T12:52:17.281Z,27.41
2018-04-22T12:53:17.272Z,27.43
2018-04-22T12:54:17.261Z,27.54
2018-04-22T12:55:17.262Z,27.62
2018-04-22T12:56:17.252Z,27.55